Time;durP1;ratioP1;P1;durP2;ratioP2;P2;SDS_P1;SDS_P2;PMS_P1;PMS_P2;Temp;Humidity;BMP_temperature;BMP_pressure;BME280_temperature;BME280_humidity;BME280_pressure;Samples;Min_cycle;Max_cycle;Signal;HPM_P1;HPM_P2
2021/05/20 00:01:48;;;;;;;1.83;1.27;;;;;;;;;;5084374;28;20085;-49
2021/05/20 00:04:14;;;;;;;1.42;1.10;;;;;;;;;;5085734;28;20024;-49
2021/05/20 00:06:40;;;;;;;4.78;1.33;;;;;;;;;;5072571;28;20484;-48
2021/05/20 00:09:07;;;;;;;4.90;1.13;;;;;;;;;;5092420;28;20039;-49
2021/05/20 00:11:33;;;;;;;2.75;1.00;;;;;;;;;;5092447;28;20117;-48
2021/05/20 00:13:59;;;;;;;1.17;1.00;;;;;;;;;;5091821;28;20545;-49
2021/05/20 00:16:25;;;;;;;4.13;1.23;;;;;;;;;;5084192;28;20023;-47
2021/05/20 00:18:51;;;;;;;1.10;1.00;;;;;;;;;;5092602;28;20107;-47
2021/05/20 00:21:17;;;;;;;1.15;1.02;;;;;;;;;;5092677;28;20047;-47
2021/05/20 00:23:43;;;;;;;1.95;1.00;;;;;;;;;;5092468;28;20062;-48
2021/05/20 00:26:12;;;;;;;1.00;0.90;;;;;;;;;;5091954;28;20491;-48
2021/05/20 00:28:39;;;;;;;4.05;1.42;;;;;;;;;;5092494;28;20023;-48
2021/05/20 00:31:05;;;;;;;3.85;1.17;;;;;;;;;;5089161;28;20028;-48
2021/05/20 00:33:31;;;;;;;4.80;1.75;;;;;;;;;;5086622;28;20222;-48
2021/05/20 00:35:57;;;;;;;1.25;0.68;;;;;;;;;;5092560;28;20028;-48
2021/05/20 00:38:23;;;;;;;2.38;1.10;;;;;;;;;;5092719;28;20042;-48
2021/05/20 00:40:49;;;;;;;1.25;1.15;;;;;;;;;;5091308;28;20416;-48
2021/05/20 00:43:15;;;;;;;1.45;1.30;;;;;;;;;;5092306;28;20028;-48
2021/05/20 00:45:41;;;;;;;0.88;0.88;;;;;;;;;;5091748;28;20028;-48
2021/05/20 00:48:07;;;;;;;1.10;1.00;;;;;;;;;;5083902;28;20380;-48
2021/05/20 00:50:33;;;;;;;6.82;1.42;;;;;;;;;;5092096;28;20043;-48
2021/05/20 00:52:59;;;;;;;1.75;1.38;;;;;;;;;;5091729;28;20024;-48
2021/05/20 00:55:31;;;;;;;2.80;1.00;;;;;;;;;;5091941;28;20090;-48
2021/05/20 00:58:00;;;;;;;2.17;1.20;;;;;;;;;;5091983;28;20028;-48
2021/05/20 01:00:26;;;;;;;3.10;1.08;;;;;;;;;;5078754;28;20386;-47
2021/05/20 01:02:52;;;;;;;4.40;1.15;;;;;;;;;;5080770;28;20115;-48
2021/05/20 01:05:18;;;;;;;1.20;1.10;;;;;;;;;;5075645;28;20111;-48
2021/05/20 01:07:44;;;;;;;2.35;1.30;;;;;;;;;;5079624;28;20036;-48
2021/05/20 01:10:11;;;;;;;3.25;1.38;;;;;;;;;;5091971;28;20020;-48
2021/05/20 01:12:37;;;;;;;2.90;1.42;;;;;;;;;;5092079;28;20022;-48
2021/05/20 01:15:03;;;;;;;5.30;1.70;;;;;;;;;;5091099;28;20027;-48
2021/05/20 01:17:29;;;;;;;2.22;1.40;;;;;;;;;;5083081;28;20596;-47
2021/05/20 01:19:55;;;;;;;1.48;1.15;;;;;;;;;;5091666;28;20135;-47
2021/05/20 01:22:21;;;;;;;3.38;1.60;;;;;;;;;;5091001;28;20024;-48
2021/05/20 01:24:47;;;;;;;3.10;1.85;;;;;;;;;;5091656;28;20051;-47
2021/05/20 01:27:15;;;;;;;2.13;1.70;;;;;;;;;;5091865;28;20040;-48
2021/05/20 01:29:42;;;;;;;3.33;1.85;;;;;;;;;;5090755;28;20024;-48
2021/05/20 01:32:08;;;;;;;2.50;1.95;;;;;;;;;;5082370;28;20008;-48
2021/05/20 01:34:34;;;;;;;3.58;1.73;;;;;;;;;;5091099;28;20441;-48
2021/05/20 01:37:01;;;;;;;3.85;1.60;;;;;;;;;;5090832;28;20104;-48
2021/05/20 01:39:27;;;;;;;4.93;2.30;;;;;;;;;;5091406;28;20020;-48
2021/05/20 01:41:53;;;;;;;2.50;1.50;;;;;;;;;;5076056;28;20040;-48
2021/05/20 01:44:20;;;;;;;2.88;1.60;;;;;;;;;;5090853;28;20039;-48
2021/05/20 01:46:46;;;;;;;2.25;1.92;;;;;;;;;;5083034;28;20051;-48
2021/05/20 01:49:12;;;;;;;3.20;2.13;;;;;;;;;;5091287;28;20020;-48
2021/05/20 01:51:39;;;;;;;2.33;1.77;;;;;;;;;;5090657;28;20356;-49
2021/05/20 01:54:05;;;;;;;4.18;1.70;;;;;;;;;;5091440;28;20020;-48
2021/05/20 01:56:35;;;;;;;3.20;2.08;;;;;;;;;;5091323;28;20025;-48
2021/05/20 01:59:01;;;;;;;1.98;1.77;;;;;;;;;;5091097;28;20016;-48
2021/05/20 02:01:27;;;;;;;3.20;1.75;;;;;;;;;;5084274;28;20476;-48
2021/05/20 02:03:53;;;;;;;2.78;1.85;;;;;;;;;;5088513;28;20023;-48
2021/05/20 02:06:19;;;;;;;2.75;1.75;;;;;;;;;;5090902;28;20066;-47
2021/05/20 02:08:45;;;;;;;3.20;2.05;;;;;;;;;;5074380;28;20044;-47
2021/05/20 02:11:11;;;;;;;5.72;1.80;;;;;;;;;;5070676;28;20500;-49
2021/05/20 02:13:37;;;;;;;2.78;1.88;;;;;;;;;;5070852;28;20028;-48
2021/05/20 02:16:04;;;;;;;2.00;1.50;;;;;;;;;;5082114;28;20035;-48
2021/05/20 02:18:30;;;;;;;3.17;1.83;;;;;;;;;;5085264;28;20335;-47
2021/05/20 02:20:56;;;;;;;3.90;1.85;;;;;;;;;;5083435;28;20490;-48
2021/05/20 02:23:22;;;;;;;2.85;1.75;;;;;;;;;;5090583;28;20024;-48
2021/05/20 02:25:48;;;;;;;3.28;2.05;;;;;;;;;;5090841;28;20162;-47
2021/05/20 02:28:14;;;;;;;4.07;1.83;;;;;;;;;;5090662;28;20081;-47
2021/05/20 02:30:40;;;;;;;1.98;1.45;;;;;;;;;;5089270;28;20109;-48
2021/05/20 02:33:06;;;;;;;3.15;2.10;;;;;;;;;;5082084;28;20391;-48
2021/05/20 02:35:32;;;;;;;2.55;2.10;;;;;;;;;;5090670;28;20027;-48
2021/05/20 02:37:58;;;;;;;3.20;2.20;;;;;;;;;;5090709;28;20028;-49
2021/05/20 02:40:24;;;;;;;5.07;2.22;;;;;;;;;;5090149;28;20321;-47
2021/05/20 02:42:50;;;;;;;5.45;2.25;;;;;;;;;;5090642;28;20035;-48
2021/05/20 02:45:19;;;;;;;3.85;2.55;;;;;;;;;;5090190;28;20016;-48
2021/05/20 02:47:45;;;;;;;4.65;2.35;;;;;;;;;;5084997;28;20051;-48
2021/05/20 02:50:12;;;;;;;6.65;2.80;;;;;;;;;;5093622;28;20357;-49
2021/05/20 02:52:38;;;;;;;3.80;2.53;;;;;;;;;;5094168;28;20434;-49
2021/05/20 02:55:06;;;;;;;3.92;2.40;;;;;;;;;;5094511;28;20024;-48
2021/05/20 02:57:33;;;;;;;3.30;2.53;;;;;;;;;;5094367;28;20077;-48
2021/05/20 02:59:59;;;;;;;8.05;2.83;;;;;;;;;;5093330;28;20012;-49
2021/05/20 03:02:25;;;;;;;3.92;2.55;;;;;;;;;;5085297;28;20521;-49
2021/05/20 03:04:52;;;;;;;3.90;1.98;;;;;;;;;;5080742;28;20031;-49
2021/05/20 03:07:18;;;;;;;6.32;2.58;;;;;;;;;;5078027;28;20034;-48
2021/05/20 03:09:44;;;;;;;4.65;2.75;;;;;;;;;;5094220;28;20260;-48
2021/05/20 03:12:10;;;;;;;5.28;2.40;;;;;;;;;;5093624;28;20481;-48
2021/05/20 03:14:36;;;;;;;8.25;2.40;;;;;;;;;;5094170;28;20119;-48
2021/05/20 03:17:09;;;;;;;3.00;2.42;;;;;;;;;;5084594;28;20048;-49
2021/05/20 03:19:35;;;;;;;5.85;2.45;;;;;;;;;;5093645;28;20468;-48
2021/05/20 03:22:01;;;;;;;3.03;2.35;;;;;;;;;;5093374;28;20032;-48
2021/05/20 03:24:27;;;;;;;4.57;2.30;;;;;;;;;;5093917;28;20027;-48
2021/05/20 03:26:53;;;;;;;2.95;2.20;;;;;;;;;;5093134;28;20032;-48
2021/05/20 03:29:19;;;;;;;3.55;2.15;;;;;;;;;;5093407;28;20434;-48
2021/05/20 03:31:45;;;;;;;2.85;2.08;;;;;;;;;;5084686;28;20036;-48
2021/05/20 03:34:11;;;;;;;2.42;1.63;;;;;;;;;;5093582;28;20337;-48
2021/05/20 03:36:37;;;;;;;3.80;2.03;;;;;;;;;;5093564;28;20031;-48
2021/05/20 03:39:04;;;;;;;1.92;1.73;;;;;;;;;;5093043;28;20100;-47
2021/05/20 03:41:30;;;;;;;2.83;2.38;;;;;;;;;;5093378;28;20109;-48
2021/05/20 03:43:56;;;;;;;3.00;1.92;;;;;;;;;;5093124;28;20071;-48
2021/05/20 03:46:22;;;;;;;3.33;1.80;;;;;;;;;;5092652;28;20024;-48
2021/05/20 03:48:48;;;;;;;5.78;2.33;;;;;;;;;;5084905;28;20028;-47
2021/05/20 03:51:14;;;;;;;3.83;2.50;;;;;;;;;;5093266;28;20019;-48
2021/05/20 03:53:40;;;;;;;4.82;2.40;;;;;;;;;;5092878;28;20049;-48
2021/05/20 03:56:06;;;;;;;2.45;2.08;;;;;;;;;;5093139;28;20070;-47
2021/05/20 03:58:32;;;;;;;2.40;1.95;;;;;;;;;;5092496;28;20028;-47
2021/05/20 04:00:58;;;;;;;3.13;2.38;;;;;;;;;;5092023;28;20036;-48
2021/05/20 04:03:27;;;;;;;3.08;2.17;;;;;;;;;;5084424;28;20023;-48
2021/05/20 04:05:54;;;;;;;5.55;2.03;;;;;;;;;;5073098;28;20346;-49
2021/05/20 04:08:20;;;;;;;2.83;2.03;;;;;;;;;;5072773;28;20074;-47
2021/05/20 04:10:46;;;;;;;3.97;2.60;;;;;;;;;;5072466;28;20025;-48
2021/05/20 04:13:13;;;;;;;3.70;2.08;;;;;;;;;;5072345;28;20428;-48
2021/05/20 04:15:39;;;;;;;5.43;2.20;;;;;;;;;;5077774;28;20058;-48
2021/05/20 04:18:05;;;;;;;2.63;1.95;;;;;;;;;;5084282;28;20054;-49
2021/05/20 04:20:31;;;;;;;2.60;2.00;;;;;;;;;;5092625;28;20123;-48
2021/05/20 04:22:57;;;;;;;4.80;2.28;;;;;;;;;;5092919;28;20036;-48
2021/05/20 04:25:23;;;;;;;4.20;2.67;;;;;;;;;;5092305;28;20016;-48
2021/05/20 04:27:49;;;;;;;4.85;2.40;;;;;;;;;;5092674;28;20063;-48
2021/05/20 04:30:15;;;;;;;5.25;2.60;;;;;;;;;;5089614;28;20035;-48
2021/05/20 04:32:41;;;;;;;3.95;2.42;;;;;;;;;;5079855;28;20024;-48
2021/05/20 04:35:07;;;;;;;3.63;2.60;;;;;;;;;;5082943;28;20028;-48
2021/05/20 04:37:33;;;;;;;5.28;2.42;;;;;;;;;;5086931;28;20124;-48
2021/05/20 04:39:59;;;;;;;3.13;2.03;;;;;;;;;;5088568;28;20046;-48
2021/05/20 04:42:25;;;;;;;3.50;2.10;;;;;;;;;;5092070;28;20667;-48
2021/05/20 04:44:51;;;;;;;3.05;2.30;;;;;;;;;;5090872;28;20031;-49
2021/05/20 04:47:17;;;;;;;4.13;2.20;;;;;;;;;;5091889;28;20020;-48
2021/05/20 04:49:44;;;;;;;4.80;2.33;;;;;;;;;;5092428;28;20658;-48
2021/05/20 04:52:10;;;;;;;5.20;2.47;;;;;;;;;;5092325;28;20024;-48
2021/05/20 04:54:36;;;;;;;4.00;2.40;;;;;;;;;;5084539;28;20082;-48
2021/05/20 04:57:02;;;;;;;4.13;2.30;;;;;;;;;;5078725;28;20025;-49
2021/05/20 04:59:28;;;;;;;2.72;1.90;;;;;;;;;;5071427;28;20025;-48
2021/05/20 05:01:54;;;;;;;1.98;1.77;;;;;;;;;;5071500;28;20058;-47
2021/05/20 05:04:19;;;;;;;1.55;1.45;;;;;;;;;;5071590;28;20017;-48
2021/05/20 05:06:45;;;;;;;2.30;1.63;;;;;;;;;;5071679;28;20123;-48
2021/05/20 05:09:11;;;;;;;5.40;2.10;;;;;;;;;;5086793;28;20031;-48
2021/05/20 05:11:37;;;;;;;5.28;2.05;;;;;;;;;;5085852;28;20046;-48
2021/05/20 05:14:04;;;;;;;3.45;1.77;;;;;;;;;;5091343;28;20146;-48
2021/05/20 05:16:30;;;;;;;5.15;1.65;;;;;;;;;;5090588;28;20035;-48
2021/05/20 05:18:56;;;;;;;2.40;1.50;;;;;;;;;;5091598;28;20047;-48
2021/05/20 05:21:22;;;;;;;3.58;2.00;;;;;;;;;;5091267;28;20467;-48
2021/05/20 05:23:48;;;;;;;2.38;1.27;;;;;;;;;;5089977;28;20341;-47
2021/05/20 05:26:14;;;;;;;2.13;1.20;;;;;;;;;;5083778;28;20024;-48
2021/05/20 05:28:40;;;;;;;2.90;2.10;;;;;;;;;;5091398;28;20089;-47
2021/05/20 05:31:09;;;;;;;3.28;2.10;;;;;;;;;;5090870;28;20036;-48
2021/05/20 05:33:34;;;;;;;2.25;1.73;;;;;;;;;;5079525;28;20444;-47
2021/05/20 05:36:00;;;;;;;2.88;1.80;;;;;;;;;;5071208;28;20032;-48
2021/05/20 05:38:26;;;;;;;3.22;1.92;;;;;;;;;;5076480;28;20043;-49
2021/05/20 05:40:52;;;;;;;8.07;2.20;;;;;;;;;;5082337;28;20078;-48
2021/05/20 05:43:18;;;;;;;3.85;1.90;;;;;;;;;;5091477;28;20454;-48
2021/05/20 05:45:44;;;;;;;4.93;1.80;;;;;;;;;;5090807;28;20402;-48
2021/05/20 05:48:12;;;;;;;2.63;1.98;;;;;;;;;;5091445;28;20108;-47
2021/05/20 05:50:39;;;;;;;2.67;2.40;;;;;;;;;;5090750;28;20028;-48
2021/05/20 05:53:06;;;;;;;3.15;2.17;;;;;;;;;;5090568;28;20024;-47
2021/05/20 05:55:33;;;;;;;5.90;1.80;;;;;;;;;;5084145;28;20473;-47
2021/05/20 05:57:58;;;;;;;2.08;1.75;;;;;;;;;;5089099;28;20522;-48
2021/05/20 06:00:25;;;;;;;4.88;2.78;;;;;;;;;;5090528;28;20171;-48
2021/05/20 06:02:51;;;;;;;3.65;2.22;;;;;;;;;;5091404;28;20101;-46
2021/05/20 06:05:18;;;;;;;2.28;1.75;;;;;;;;;;5074931;28;20025;-47
2021/05/20 06:07:45;;;;;;;3.90;1.85;;;;;;;;;;5079675;28;20036;-48
2021/05/20 06:10:11;;;;;;;3.50;2.17;;;;;;;;;;5086403;28;20410;-47
2021/05/20 06:12:37;;;;;;;2.50;1.70;;;;;;;;;;5086012;28;20024;-48
2021/05/20 06:15:04;;;;;;;3.55;2.30;;;;;;;;;;5090869;28;20020;-48
2021/05/20 06:17:30;;;;;;;2.92;1.77;;;;;;;;;;5090399;28;20103;-47
2021/05/20 06:19:56;;;;;;;4.32;2.03;;;;;;;;;;5090535;28;20020;-48
2021/05/20 06:22:23;;;;;;;3.90;1.60;;;;;;;;;;5092741;28;20024;-47
2021/05/20 06:24:49;;;;;;;1.00;0.68;;;;;;;;;;5088614;28;20028;-46
2021/05/20 06:27:14;;;;;;;4.38;1.60;;;;;;;;;;5095044;28;20369;-47
2021/05/20 06:29:40;;;;;;;2.38;1.40;;;;;;;;;;5086980;28;20107;-48
2021/05/20 06:32:07;;;;;;;3.03;1.50;;;;;;;;;;5081059;28;20024;-47
2021/05/20 06:34:33;;;;;;;1.95;1.35;;;;;;;;;;5094628;28;20024;-47
2021/05/20 06:37:02;;;;;;;1.58;1.42;;;;;;;;;;5094881;28;20051;-48
2021/05/20 06:39:28;;;;;;;7.40;1.55;;;;;;;;;;5093835;28;20105;-48
2021/05/20 06:41:55;;;;;;;1.27;0.98;;;;;;;;;;5092405;28;20039;-47
2021/05/20 06:44:22;;;;;;;7.45;1.55;;;;;;;;;;5094802;28;20016;-48
2021/05/20 06:46:48;;;;;;;1.83;1.35;;;;;;;;;;5094393;28;20017;-47
2021/05/20 06:49:14;;;;;;;1.08;0.98;;;;;;;;;;5094382;28;20016;-47
2021/05/20 06:51:40;;;;;;;0.90;0.80;;;;;;;;;;5094141;28;20020;-47
2021/05/20 06:54:06;;;;;;;1.25;1.15;;;;;;;;;;5093953;28;20027;-47
2021/05/20 06:56:33;;;;;;;1.52;1.05;;;;;;;;;;5085678;28;20052;-47
2021/05/20 07:01:47;;;;;;;0.88;0.55;;;;;;;;;;5093557;28;20398;-47
2021/05/20 07:04:16;;;;;;;1.50;0.50;;;;;;;;;;5087244;28;20350;-47
2021/05/20 07:06:42;;;;;;;1.38;0.80;;;;;;;;;;5073782;28;20028;-47
2021/05/20 07:09:08;;;;;;;1.50;0.90;;;;;;;;;;5093507;28;20357;-47
2021/05/20 07:11:34;;;;;;;0.82;0.80;;;;;;;;;;5085032;28;20423;-47
2021/05/20 07:14:01;;;;;;;0.75;0.68;;;;;;;;;;5093788;28;20016;-47
2021/05/20 07:16:27;;;;;;;0.80;0.80;;;;;;;;;;5093522;28;20410;-47
2021/05/20 07:18:53;;;;;;;2.05;1.00;;;;;;;;;;5082237;28;20016;-47
2021/05/20 07:21:19;;;;;;;0.60;0.60;;;;;;;;;;5073010;28;20043;-47
2021/05/20 07:23:45;;;;;;;0.98;0.63;;;;;;;;;;5076200;28;20104;-48
2021/05/20 07:26:11;;;;;;;0.52;0.52;;;;;;;;;;5084838;28;20103;-47
2021/05/20 07:28:37;;;;;;;1.35;0.80;;;;;;;;;;5093273;28;20330;-47
2021/05/20 07:31:03;;;;;;;0.40;0.40;;;;;;;;;;5093786;28;20039;-47
2021/05/20 07:33:30;;;;;;;0.80;0.65;;;;;;;;;;5092546;28;20051;-47
2021/05/20 07:35:56;;;;;;;1.55;0.60;;;;;;;;;;5093424;28;20062;-47
2021/05/20 07:38:22;;;;;;;0.45;0.45;;;;;;;;;;5093612;28;20063;-47
2021/05/20 07:40:48;;;;;;;0.90;0.70;;;;;;;;;;5083697;28;20067;-47
2021/05/20 07:43:14;;;;;;;1.30;0.80;;;;;;;;;;5093038;28;20048;-47
2021/05/20 07:45:40;;;;;;;2.00;1.25;;;;;;;;;;5093560;28;20580;-47
2021/05/20 07:48:07;;;;;;;0.65;0.65;;;;;;;;;;5093569;28;20020;-47
2021/05/20 07:50:32;;;;;;;3.28;1.05;;;;;;;;;;5092606;28;20453;-47
2021/05/20 07:52:58;;;;;;;1.40;0.93;;;;;;;;;;5093188;28;20020;-47
2021/05/20 07:55:25;;;;;;;0.98;0.80;;;;;;;;;;5086949;28;20119;-47
2021/05/20 07:57:53;;;;;;;1.25;0.90;;;;;;;;;;5089699;28;20024;-47
2021/05/20 08:00:19;;;;;;;0.30;0.30;;;;;;;;;;5092521;28;20034;-48
2021/05/20 08:05:24;;;;;;;0.63;0.63;;;;;;;;;;5093131;28;20025;-48
2021/05/20 08:07:58;;;;;;;0.77;0.77;;;;;;;;;;5083127;28;20095;-48
2021/05/20 08:13:09;;;;;;;0.82;0.80;;;;;;;;;;5092969;28;20043;-47
2021/05/20 08:15:35;;;;;;;2.92;0.82;;;;;;;;;;5092721;28;20016;-47
2021/05/20 08:18:01;;;;;;;0.90;0.60;;;;;;;;;;5088172;28;20052;-48
2021/05/20 08:20:27;;;;;;;1.45;0.85;;;;;;;;;;5072238;28;20025;-48
2021/05/20 08:22:53;;;;;;;1.85;0.70;;;;;;;;;;5071911;28;20032;-47
2021/05/20 08:25:19;;;;;;;2.25;0.60;;;;;;;;;;5084420;28;20035;-48
2021/05/20 08:27:45;;;;;;;0.80;0.60;;;;;;;;;;5084030;28;20024;-48
2021/05/20 08:30:11;;;;;;;0.60;0.60;;;;;;;;;;5092127;28;20110;-47
2021/05/20 08:32:37;;;;;;;0.50;0.50;;;;;;;;;;5092210;28;20116;-48
2021/05/20 08:35:04;;;;;;;1.10;0.68;;;;;;;;;;5092273;28;20035;-47
2021/05/20 08:37:30;;;;;;;0.68;0.57;;;;;;;;;;5091749;28;20028;-48
2021/05/20 08:39:56;;;;;;;1.80;0.63;;;;;;;;;;5085985;28;20020;-47
2021/05/20 08:42:22;;;;;;;0.93;0.47;;;;;;;;;;5080014;28;20426;-48
2021/05/20 08:44:48;;;;;;;0.50;0.50;;;;;;;;;;5071878;28;20034;-48
2021/05/20 08:47:14;;;;;;;1.52;0.60;;;;;;;;;;5072020;28;20025;-47
2021/05/20 08:49:44;;;;;;;0.40;0.40;;;;;;;;;;5071623;28;20036;-48
2021/05/20 08:52:12;;;;;;;1.55;0.60;;;;;;;;;;5071091;28;20021;-48
2021/05/20 08:54:38;;;;;;;0.85;0.50;;;;;;;;;;5077144;28;20066;-47
2021/05/20 08:57:04;;;;;;;0.50;0.40;;;;;;;;;;5091158;28;20024;-48
2021/05/20 08:59:31;;;;;;;5.70;0.80;;;;;;;;;;5088636;28;20039;-48
2021/05/20 09:01:58;;;;;;;0.50;0.50;;;;;;;;;;5090936;28;20449;-47
2021/05/20 09:04:26;;;;;;;0.55;0.50;;;;;;;;;;5091267;28;20016;-47
2021/05/20 09:06:55;;;;;;;2.17;0.52;;;;;;;;;;5088378;28;20067;-48
2021/05/20 09:09:28;;;;;;;0.47;0.47;;;;;;;;;;5091210;28;20039;-48
2021/05/20 09:11:58;;;;;;;0.40;0.40;;;;;;;;;;5088809;28;20341;-48
2021/05/20 09:14:24;;;;;;;;;;;;;;;;;;5091795;28;20032;-48
2021/05/20 09:16:50;;;;;;;1.25;0.73;;;;;;;;;;5091380;28;20232;-47
2021/05/20 09:19:22;;;;;;;0.68;0.68;;;;;;;;;;5091187;28;20053;-48
2021/05/20 09:22:08;;;;;;;0.70;0.70;;;;;;;;;;5091195;28;20024;-48
2021/05/20 09:24:51;;;;;;;0.50;0.30;;;;;;;;;;5091275;28;20028;-47
2021/05/20 09:27:34;;;;;;;0.50;0.50;;;;;;;;;;5079168;28;20025;-48
2021/05/20 09:30:06;;;;;;;0.57;0.50;;;;;;;;;;5071187;28;20098;-48
2021/05/20 09:32:35;;;;;;;0.20;0.20;;;;;;;;;;5088083;28;20027;-47
2021/05/20 09:35:02;;;;;;;0.40;0.40;;;;;;;;;;5091730;28;20077;-48
2021/05/20 09:37:28;;;;;;;0.30;0.30;;;;;;;;;;5091342;28;20024;-48
2021/05/20 09:40:05;;;;;;;0.50;0.50;;;;;;;;;;5089452;28;20027;-48
2021/05/20 09:42:31;;;;;;;0.40;0.40;;;;;;;;;;5079369;28;20040;-48
2021/05/20 09:45:10;;;;;;;0.20;0.20;;;;;;;;;;5071333;28;20058;-47
2021/05/20 09:47:36;;;;;;;0.30;0.30;;;;;;;;;;5070911;28;20029;-48
2021/05/20 09:50:02;;;;;;;0.40;0.40;;;;;;;;;;5070668;28;20383;-47
2021/05/20 09:52:28;;;;;;;0.40;0.40;;;;;;;;;;5070718;28;20050;-48
2021/05/20 09:54:55;;;;;;;0.30;0.30;;;;;;;;;;5075572;28;20040;-48
2021/05/20 09:57:28;;;;;;;0.77;0.40;;;;;;;;;;5081859;28;20024;-48
2021/05/20 10:00:00;;;;;;;0.20;0.20;;;;;;;;;;5090939;28;20350;-48
2021/05/20 10:02:26;;;;;;;0.88;0.82;;;;;;;;;;5090470;28;20071;-48
2021/05/20 10:04:53;;;;;;;0.52;0.50;;;;;;;;;;5091137;28;20016;-48
2021/05/20 10:07:26;;;;;;;2.20;0.65;;;;;;;;;;5090674;28;20063;-47
2021/05/20 10:09:52;;;;;;;0.40;0.40;;;;;;;;;;5091277;28;20012;-48
2021/05/20 10:12:18;;;;;;;0.47;0.47;;;;;;;;;;5090688;28;20024;-48
2021/05/20 10:14:44;;;;;;;0.38;0.38;;;;;;;;;;5091415;28;20047;-47
2021/05/20 10:17:10;;;;;;;0.43;0.40;;;;;;;;;;5089246;28;20442;-48
2021/05/20 10:19:37;;;;;;;1.25;0.52;;;;;;;;;;5089731;28;20028;-47
2021/05/20 10:22:03;;;;;;;0.30;0.30;;;;;;;;;;5090381;28;20028;-47
2021/05/20 10:24:31;;;;;;;0.30;0.30;;;;;;;;;;5086989;28;20016;-47
2021/05/20 10:26:57;;;;;;;0.40;0.40;;;;;;;;;;5087485;28;20472;-48
2021/05/20 10:29:23;;;;;;;0.30;0.30;;;;;;;;;;5090499;28;20115;-47
2021/05/20 10:31:49;;;;;;;1.10;0.30;;;;;;;;;;5090290;28;20571;-47
2021/05/20 10:34:17;;;;;;;0.50;0.50;;;;;;;;;;5090396;28;20350;-47
2021/05/20 10:36:58;;;;;;;0.40;0.40;;;;;;;;;;5091139;28;20028;-48
2021/05/20 10:39:25;;;;;;;0.60;0.40;;;;;;;;;;5090335;28;20374;-47
2021/05/20 10:41:51;;;;;;;0.60;0.60;;;;;;;;;;5089951;28;20119;-47
2021/05/20 10:44:19;;;;;;;0.63;0.40;;;;;;;;;;5090465;28;20058;-47
2021/05/20 10:46:57;;;;;;;0.35;0.35;;;;;;;;;;5090467;28;20028;-47
2021/05/20 10:49:42;;;;;;;0.40;0.40;;;;;;;;;;5090355;28;20021;-48
2021/05/20 10:52:26;;;;;;;0.45;0.45;;;;;;;;;;5090553;28;20020;-48
2021/05/20 10:54:59;;;;;;;0.40;0.40;;;;;;;;;;5090411;28;20464;-48
2021/05/20 10:57:45;;;;;;;0.50;0.50;;;;;;;;;;5090469;28;20028;-47
2021/05/20 11:00:31;;;;;;;0.47;0.47;;;;;;;;;;5090107;28;20035;-48
2021/05/20 11:02:59;;;;;;;1.42;0.70;;;;;;;;;;5089768;28;20119;-48
2021/05/20 11:05:40;;;;;;;0.40;0.40;;;;;;;;;;5090837;28;20032;-48
2021/05/20 11:08:09;;;;;;;0.30;0.30;;;;;;;;;;5090499;28;20039;-47
2021/05/20 11:10:36;;;;;;;0.40;0.40;;;;;;;;;;5093758;28;20035;-47
2021/05/20 11:13:02;;;;;;;0.35;0.35;;;;;;;;;;5094091;28;20023;-48
2021/05/20 11:15:28;;;;;;;3.20;0.57;;;;;;;;;;5094105;28;20031;-47
2021/05/20 11:17:54;;;;;;;1.73;0.60;;;;;;;;;;5093909;28;20217;-47
2021/05/20 11:20:35;;;;;;;0.47;0.47;;;;;;;;;;5093251;28;20423;-48
2021/05/20 11:23:15;;;;;;;0.32;0.32;;;;;;;;;;5094099;28;20396;-47
2021/05/20 11:25:42;;;;;;;0.50;0.50;;;;;;;;;;5093998;28;20157;-47
2021/05/20 11:28:08;;;;;;;0.85;0.82;;;;;;;;;;5088391;28;20020;-48
2021/05/20 11:30:34;;;;;;;0.70;0.50;;;;;;;;;;5092969;28;20028;-48
2021/05/20 11:33:02;;;;;;;0.60;0.60;;;;;;;;;;5093900;28;20026;-47
2021/05/20 11:35:53;;;;;;;0.88;0.88;;;;;;;;;;5092386;28;20036;-48
2021/05/20 11:38:22;;;;;;;0.95;0.50;;;;;;;;;;5090911;28;20031;-47
2021/05/20 11:40:48;;;;;;;0.38;0.38;;;;;;;;;;5092234;28;20032;-48
2021/05/20 11:43:14;;;;;;;1.25;0.75;;;;;;;;;;5088253;28;20024;-48
2021/05/20 11:45:40;;;;;;;0.60;0.60;;;;;;;;;;5092608;28;20514;-47
2021/05/20 11:48:06;;;;;;;0.57;0.57;;;;;;;;;;5088202;28;20028;-48
2021/05/20 11:50:34;;;;;;;1.27;0.50;;;;;;;;;;5093045;28;20099;-49
2021/05/20 11:53:11;;;;;;;0.35;0.35;;;;;;;;;;5073762;28;20032;-48
2021/05/20 11:55:37;;;;;;;0.30;0.30;;;;;;;;;;5072213;28;20034;-48
2021/05/20 11:58:03;;;;;;;1.23;0.60;;;;;;;;;;5073085;28;20028;-48
2021/05/20 12:00:30;;;;;;;0.40;0.40;;;;;;;;;;5080384;28;20124;-48
2021/05/20 12:02:56;;;;;;;0.57;0.47;;;;;;;;;;5093189;28;20024;-48
2021/05/20 12:05:25;;;;;;;1.17;0.60;;;;;;;;;;5092311;28;20426;-47
2021/05/20 12:07:51;;;;;;;0.30;0.30;;;;;;;;;;5092465;28;20517;-48
2021/05/20 12:10:21;;;;;;;1.50;0.50;;;;;;;;;;5091739;28;20124;-48
2021/05/20 12:12:59;;;;;;;2.63;0.60;;;;;;;;;;5081533;28;20028;-48
2021/05/20 12:15:26;;;;;;;0.50;0.50;;;;;;;;;;5083700;28;20028;-48
2021/05/20 12:17:54;;;;;;;1.30;0.50;;;;;;;;;;5077372;28;20472;-48
2021/05/20 12:20:21;;;;;;;0.30;0.30;;;;;;;;;;5078131;28;20123;-49
2021/05/20 12:22:47;;;;;;;2.53;0.80;;;;;;;;;;5086342;28;20401;-48
2021/05/20 12:25:14;;;;;;;0.90;0.50;;;;;;;;;;5090943;28;20016;-48
2021/05/20 12:27:41;;;;;;;1.17;0.50;;;;;;;;;;5090599;28;20028;-48
2021/05/20 12:30:09;;;;;;;0.50;0.50;;;;;;;;;;5091312;28;20515;-49
2021/05/20 12:32:35;;;;;;;2.08;0.50;;;;;;;;;;5091238;28;20123;-47
2021/05/20 12:35:10;;;;;;;0.55;0.55;;;;;;;;;;5088304;28;20129;-48
2021/05/20 12:37:43;;;;;;;0.77;0.50;;;;;;;;;;5085292;28;20025;-48
2021/05/20 12:40:33;;;;;;;0.82;0.60;;;;;;;;;;5081274;28;20035;-48
2021/05/20 12:43:07;;;;;;;0.95;0.60;;;;;;;;;;5076190;28;20433;-48
2021/05/20 12:45:34;;;;;;;5.40;0.60;;;;;;;;;;5091094;28;20024;-47
2021/05/20 12:48:00;;;;;;;0.45;0.45;;;;;;;;;;5092268;28;20028;-49
2021/05/20 12:50:27;;;;;;;1.38;0.82;;;;;;;;;;5090208;28;20067;-48
2021/05/20 12:52:57;;;;;;;0.63;0.60;;;;;;;;;;5078934;28;20023;-49
2021/05/20 12:55:37;;;;;;;0.47;0.47;;;;;;;;;;5069259;28;20056;-50
2021/05/20 12:58:03;;;;;;;0.50;0.50;;;;;;;;;;5084973;28;20059;-49
2021/05/20 13:00:30;;;;;;;0.70;0.70;;;;;;;;;;5091766;28;20043;-47
2021/05/20 13:02:58;;;;;;;0.93;0.60;;;;;;;;;;5092005;28;20524;-48
2021/05/20 13:05:24;;;;;;;0.60;0.40;;;;;;;;;;5089667;28;20445;-47
2021/05/20 13:07:50;;;;;;;1.13;0.43;;;;;;;;;;5091897;28;20020;-48
2021/05/20 13:10:32;;;;;;;0.20;0.20;;;;;;;;;;5090660;28;20107;-48
2021/05/20 13:12:58;;;;;;;0.50;0.50;;;;;;;;;;5071593;28;20027;-48
2021/05/20 13:15:24;;;;;;;0.40;0.40;;;;;;;;;;5071576;28;20028;-48
2021/05/20 13:18:33;;;;;;;0.73;0.50;;;;;;;;;;5090684;28;20020;-47
2021/05/20 13:23:10;;;;;;;0.50;0.50;;;;;;;;;;5089689;28;20445;-47
2021/05/20 13:25:36;;;;;;;0.40;0.40;;;;;;;;;;5080675;28;20469;-49
2021/05/20 13:28:03;;;;;;;0.40;0.40;;;;;;;;;;5088005;28;20031;-48
2021/05/20 13:32:59;;;;;;;0.50;0.50;;;;;;;;;;5070438;28;20032;-48
2021/05/20 13:35:25;;;;;;;0.52;0.50;;;;;;;;;;5070640;28;20419;-48
2021/05/20 13:37:52;;;;;;;0.70;0.57;;;;;;;;;;5070305;28;20366;-48
2021/05/20 13:40:23;;;;;;;0.22;0.22;;;;;;;;;;5082018;28;20087;-48
2021/05/20 13:42:50;;;;;;;0.73;0.43;;;;;;;;;;5084969;28;20082;-48
2021/05/20 13:45:17;;;;;;;0.85;0.45;;;;;;;;;;5069562;28;20548;-47
2021/05/20 13:47:43;;;;;;;0.47;0.47;;;;;;;;;;5071057;28;20035;-47
2021/05/20 13:50:09;;;;;;;0.40;0.40;;;;;;;;;;5070745;28;20016;-48
2021/05/20 13:52:40;;;;;;;0.45;0.45;;;;;;;;;;5086589;28;20056;-48
2021/05/20 13:55:07;;;;;;;0.40;0.40;;;;;;;;;;5091061;28;20028;-47
2021/05/20 13:57:33;;;;;;;1.20;0.50;;;;;;;;;;5091086;28;20232;-48
2021/05/20 13:59:59;;;;;;;0.40;0.40;;;;;;;;;;5091383;28;20138;-49
2021/05/20 14:02:33;;;;;;;0.75;0.50;;;;;;;;;;5090053;28;20289;-49
2021/05/20 14:04:59;;;;;;;0.30;0.30;;;;;;;;;;5075042;28;20322;-47
2021/05/20 14:07:25;;;;;;;0.40;0.40;;;;;;;;;;5070474;28;20569;-49
2021/05/20 14:09:52;;;;;;;0.30;0.30;;;;;;;;;;5070831;28;20021;-48
2021/05/20 14:12:18;;;;;;;0.50;0.50;;;;;;;;;;5076186;28;20058;-48
2021/05/20 14:14:46;;;;;;;0.35;0.35;;;;;;;;;;5090357;28;20059;-47
2021/05/20 14:17:12;;;;;;;0.47;0.47;;;;;;;;;;5086327;28;20069;-48
2021/05/20 14:19:39;;;;;;;0.30;0.30;;;;;;;;;;5071062;28;20029;-48
2021/05/20 14:22:05;;;;;;;0.30;0.30;;;;;;;;;;5070391;28;20070;-48
2021/05/20 14:24:31;;;;;;;0.20;0.20;;;;;;;;;;5070472;28;20147;-48
2021/05/20 14:26:57;;;;;;;0.32;0.32;;;;;;;;;;5070437;28;20115;-48
2021/05/20 14:29:23;;;;;;;0.20;0.20;;;;;;;;;;5072894;28;20025;-49
2021/05/20 14:31:49;;;;;;;0.40;0.40;;;;;;;;;;5090169;28;20036;-48
2021/05/20 14:34:17;;;;;;;0.40;0.40;;;;;;;;;;5070168;28;20363;-48
2021/05/20 14:36:43;;;;;;;0.40;0.40;;;;;;;;;;5070701;28;20028;-50
2021/05/20 14:39:09;;;;;;;0.40;0.40;;;;;;;;;;5072380;28;20331;-48
2021/05/20 14:41:36;;;;;;;0.30;0.30;;;;;;;;;;5089980;28;20073;-48
2021/05/20 14:44:02;;;;;;;0.55;0.40;;;;;;;;;;5093709;28;20357;-48
2021/05/20 14:46:28;;;;;;;0.30;0.30;;;;;;;;;;5089469;28;20361;-48
2021/05/20 14:48:54;;;;;;;0.30;0.30;;;;;;;;;;5092580;28;20567;-48
2021/05/20 14:51:27;;;;;;;0.28;0.28;;;;;;;;;;5089418;28;20032;-48
2021/05/20 14:53:58;;;;;;;0.40;0.40;;;;;;;;;;5091726;28;20036;-48
2021/05/20 14:56:33;;;;;;;0.30;0.30;;;;;;;;;;5091015;28;20109;-48
2021/05/20 15:07:10;;;;;;;0.30;0.30;;;;;;;;;;5087015;28;20082;-46